aviador You're here:

KOLS Decoded Metar

NOGALES in AZ, USA
Report Time2018-02-18 20:54:00
UTC Time2018-02-18 21:58:49
Flight Rules vfr VFR
Wind230° at 12 Gusting to 19 kt
W.Decomp.*RWY 21: 11.9 kt HW 1.7 kt RCW
W.Rank230° ranks 13
Current wind is above 230° avg. (8.7)
Visibility9999 m
Phenomena:N/A
Clouds:Scattered 055 Hf
Expected CloudBase > 4,800 ft AGL from Temp-Dew spread
CeilingNone
Temp19°C (ISA +12)
Dew Point07°C (46% RH)
AAT14.0°C
QNH1015 hPa
Density Alt5,322 ft
Elevation3,885 ft
Report Wrong Elevation
Raw Report
KOLS 182054Z AUTO 23012G19KT 10SM SCT055 19/07 A2996 RMK AO2
SLP105 T01940072 58022=

Extra information for KOLS:More info

Metar Taf Metar & Taf Last 4 Metars F.Rules Stats Wind Profile Meteogram Temp Stats Airport Information Weather charts Add Link Nearby VenuesMetar ALERT Operation Metar Decoded Social comments

AIRNAV info for KOLS